createdAt,value
2022-11-19T00:01:14.816Z,99091.03
2022-11-19T00:03:43.186Z,99104.19
2022-11-19T00:06:12.875Z,99107.66
2022-11-19T00:08:40.927Z,99103.56
2022-11-19T00:11:42.092Z,99104.38
2022-11-19T00:14:10.914Z,99112.41
2022-11-19T00:16:37.711Z,99109.50
2022-11-19T00:19:05.244Z,99126.13
2022-11-19T00:21:32.433Z,99125.66
2022-11-19T00:23:59.743Z,99132.78
2022-11-19T00:26:26.683Z,99143.03
2022-11-19T00:28:54.968Z,99145.31
2022-11-19T00:31:22.129Z,99154.94
2022-11-19T00:33:50.873Z,99166.63
2022-11-19T00:36:18.218Z,99172.78
2022-11-19T00:38:45.101Z,99175.28
2022-11-19T00:41:12.334Z,99181.44
2022-11-19T00:43:48.608Z,99173.78
2022-11-19T00:46:23.359Z,99178.28
2022-11-19T00:48:51.808Z,99177.88
2022-11-19T00:51:20.852Z,99176.44
2022-11-19T00:53:47.923Z,99179.75
2022-11-19T00:56:17.505Z,99182.78
2022-11-19T00:58:45.013Z,99192.09
2022-11-19T01:01:13.652Z,99186.75
2022-11-19T01:03:41.778Z,99195.03
2022-11-19T01:06:09.706Z,99192.16
2022-11-19T01:08:37.064Z,99212.13
2022-11-19T01:11:31.484Z,99206.19
2022-11-19T01:13:59.277Z,99205.56
2022-11-19T01:16:32.408Z,99198.97
2022-11-19T01:18:59.748Z,99203.47
2022-11-19T01:21:29.450Z,99210.03
2022-11-19T01:23:57.138Z,99213.56
2022-11-19T01:26:24.614Z,99214.19
2022-11-19T01:28:51.965Z,99221.59
2022-11-19T01:31:22.255Z,99225.69
2022-11-19T01:33:50.072Z,99219.34
2022-11-19T01:36:19.506Z,99221.81
2022-11-19T01:38:52.251Z,99224.88
2022-11-19T01:41:24.693Z,99222.41
2022-11-19T01:43:53.338Z,99222.00
2022-11-19T01:46:25.293Z,99230.81
2022-11-19T01:49:04.739Z,99224.25
2022-11-19T01:51:36.030Z,99221.16
2022-11-19T01:54:11.599Z,99224.66
2022-11-19T01:56:39.485Z,99223.97
2022-11-19T01:59:14.288Z,99224.22
2022-11-19T02:01:43.596Z,99218.81
2022-11-19T02:04:13.217Z,99228.63
2022-11-19T02:06:41.614Z,99226.41
2022-11-19T02:09:08.410Z,99227.00
2022-11-19T02:11:46.168Z,99228.94
2022-11-19T02:14:12.928Z,99231.00
2022-11-19T02:17:17.305Z,99234.47
2022-11-19T02:20:21.845Z,99239.22
2022-11-19T02:23:09.057Z,99239.00
2022-11-19T02:25:38.914Z,99244.97
2022-11-19T02:28:36.395Z,99241.25
2022-11-19T02:31:12.123Z,99245.53
2022-11-19T02:33:53.407Z,99259.94
2022-11-19T02:36:23.741Z,99262.81
2022-11-19T02:39:09.183Z,99264.25
2022-11-19T02:41:46.349Z,99270.22
2022-11-19T02:44:56.981Z,99271.03
2022-11-19T02:47:38.438Z,99279.66
2022-11-19T02:50:11.788Z,99282.75
2022-11-19T02:52:44.010Z,99281.13
2022-11-19T02:55:15.470Z,99281.72
2022-11-19T02:57:52.278Z,99292.22
2022-11-19T03:00:38.278Z,99281.34
2022-11-19T03:03:39.002Z,99294.28
2022-11-19T03:06:12.403Z,99305.38
2022-11-19T03:08:39.530Z,99308.03
2022-11-19T03:11:26.658Z,99307.41
2022-11-19T03:14:21.157Z,99317.72
2022-11-19T03:16:58.650Z,99324.28
2022-11-19T03:19:35.744Z,99329.63
2022-11-19T03:22:02.545Z,99335.19
2022-11-19T03:24:52.287Z,99339.91
2022-11-19T03:27:26.834Z,99337.22
2022-11-19T03:29:57.955Z,99339.28
2022-11-19T03:32:38.498Z,99344.63
2022-11-19T03:35:11.935Z,99349.94
2022-11-19T03:37:42.446Z,99354.28
2022-11-19T03:40:11.715Z,99360.03
2022-11-19T03:42:41.736Z,99356.53
2022-11-19T03:45:17.791Z,99359.41
2022-11-19T03:47:48.333Z,99366.78
2022-11-19T03:50:19.317Z,99354.88
2022-11-19T03:52:46.367Z,99359.63
2022-11-19T03:55:13.479Z,99363.50
2022-11-19T03:57:40.783Z,99362.06
2022-11-19T04:00:08.430Z,99360.22
2022-11-19T04:02:40.482Z,99351.19
2022-11-19T04:05:09.374Z,99357.97
2022-11-19T04:07:36.327Z,99360.22
2022-11-19T04:10:03.542Z,99365.56
2022-11-19T04:12:30.394Z,99375.22
2022-11-19T04:14:57.225Z,99375.66
2022-11-19T04:17:24.209Z,99384.47
2022-11-19T04:19:51.091Z,99380.97
2022-11-19T04:22:17.926Z,99389.22
2022-11-19T04:24:44.821Z,99394.34
2022-11-19T04:27:11.724Z,99402.31
2022-11-19T04:29:38.633Z,99395.91
2022-11-19T04:32:05.724Z,99395.91
2022-11-19T04:34:32.842Z,99401.69
2022-11-19T04:36:59.699Z,99410.94
2022-11-19T04:39:27.022Z,99416.72
2022-11-19T04:41:53.809Z,99417.97
2022-11-19T04:44:20.676Z,99417.34
2022-11-19T04:46:47.496Z,99414.28
2022-11-19T04:49:14.325Z,99417.53
2022-11-19T04:51:41.226Z,99414.88
2022-11-19T04:54:10.934Z,99421.88
2022-11-19T04:56:37.848Z,99425.56
2022-11-19T04:59:05.599Z,99429.69
2022-11-19T05:01:32.601Z,99440.56
2022-11-19T05:03:59.576Z,99438.72
2022-11-19T05:06:26.488Z,99435.63
2022-11-19T05:08:53.319Z,99432.34
2022-11-19T05:11:20.230Z,99433.41
2022-11-19T05:13:47.029Z,99442.00
2022-11-19T05:16:14.040Z,99443.69
2022-11-19T05:18:40.889Z,99449.03
2022-11-19T05:21:07.755Z,99447.78
2022-11-19T05:23:34.659Z,99449.44
2022-11-19T05:26:04.051Z,99452.53
2022-11-19T05:28:38.921Z,99455.59
2022-11-19T05:31:07.683Z,99458.09
2022-11-19T05:33:34.882Z,99468.38
2022-11-19T05:36:02.670Z,99466.09
2022-11-19T05:38:29.526Z,99465.25
2022-11-19T05:40:56.468Z,99469.56
2022-11-19T05:43:23.254Z,99467.72
2022-11-19T05:45:50.111Z,99469.56
2022-11-19T05:48:16.908Z,99475.16
2022-11-19T05:50:43.891Z,99475.97
2022-11-19T05:53:11.010Z,99471.03
2022-11-19T05:55:37.920Z,99468.78
2022-11-19T05:58:04.712Z,99478.84
2022-11-19T06:00:31.670Z,99467.13
2022-11-19T06:02:58.601Z,99471.84
2022-11-19T06:05:25.563Z,99470.00
2022-11-19T06:07:52.398Z,99479.06
2022-11-19T06:10:19.289Z,99490.16
2022-11-19T06:12:46.470Z,99492.19
2022-11-19T06:15:14.780Z,99492.41
2022-11-19T06:17:41.987Z,99492.44
2022-11-19T06:20:11.257Z,99491.59
2022-11-19T06:22:38.812Z,99497.56
2022-11-19T06:25:08.016Z,99495.31
2022-11-19T06:27:35.151Z,99508.47
2022-11-19T06:30:02.775Z,99509.50
2022-11-19T06:32:29.645Z,99511.94
2022-11-19T06:34:56.461Z,99511.13
2022-11-19T06:37:23.686Z,99517.91
2022-11-19T06:39:50.635Z,99523.69
2022-11-19T06:42:35.910Z,99526.13
2022-11-19T06:45:20.854Z,99535.81
2022-11-19T06:47:49.355Z,99536.66
2022-11-19T06:50:16.227Z,99539.72
2022-11-19T06:52:43.138Z,99531.28
2022-11-19T06:55:10.282Z,99539.94
2022-11-19T06:57:37.136Z,99535.41
2022-11-19T07:00:04.950Z,99535.81
2022-11-19T07:02:31.941Z,99540.13
2022-11-19T07:04:58.710Z,99537.47
2022-11-19T07:07:25.655Z,99550.00
2022-11-19T07:09:52.585Z,99558.03
2022-11-19T07:12:19.468Z,99559.25
2022-11-19T07:14:46.307Z,99566.47
2022-11-19T07:17:13.139Z,99560.09
2022-11-19T07:19:40.051Z,99558.84
2022-11-19T07:22:07.301Z,99559.69
2022-11-19T07:24:34.262Z,99563.81
2022-11-19T07:27:01.167Z,99572.22
2022-11-19T07:29:27.957Z,99579.44
2022-11-19T07:32:01.587Z,99581.91
2022-11-19T07:34:28.421Z,99582.72
2022-11-19T07:36:55.617Z,99588.06
2022-11-19T07:39:23.116Z,99594.25
2022-11-19T07:42:08.793Z,99602.06
2022-11-19T07:44:39.917Z,99602.47
2022-11-19T07:47:09.936Z,99600.84
2022-11-19T07:49:36.947Z,99598.38
2022-11-19T07:52:03.931Z,99604.53
2022-11-19T07:54:30.991Z,99614.00
2022-11-19T07:56:57.825Z,99624.91
2022-11-19T07:59:25.651Z,99616.66
2022-11-19T08:01:52.634Z,99619.13
2022-11-19T08:04:19.682Z,99624.50
2022-11-19T08:06:46.616Z,99616.88
2022-11-19T08:09:13.592Z,99614.38
2022-11-19T08:11:40.728Z,99609.06
2022-11-19T08:14:07.683Z,99611.34
2022-11-19T08:16:53.162Z,99618.94
2022-11-19T08:19:20.462Z,99605.94
2022-11-19T08:21:47.964Z,99613.97
2022-11-19T08:24:18.312Z,99614.78
2022-11-19T08:26:46.365Z,99621.38
2022-11-19T08:29:16.692Z,99619.75
2022-11-19T08:31:45.880Z,99625.91
2022-11-19T08:34:13.174Z,99623.25
2022-11-19T08:36:40.724Z,99633.53
2022-11-19T08:39:07.636Z,99623.63
2022-11-19T08:41:52.969Z,99627.53
2022-11-19T08:44:21.018Z,99624.25
2022-11-19T08:46:48.334Z,99624.66
2022-11-19T08:49:15.222Z,99626.94
2022-11-19T08:51:42.585Z,99630.84
2022-11-19T08:54:09.883Z,99638.84
2022-11-19T08:56:36.911Z,99633.28
2022-11-19T08:59:04.054Z,99626.34
2022-11-19T09:01:32.075Z,99638.66
2022-11-19T09:03:59.175Z,99631.25
2022-11-19T09:06:26.524Z,99632.09
2022-11-19T09:08:54.258Z,99637.84
2022-11-19T09:11:22.783Z,99641.97
2022-11-19T09:13:51.322Z,99647.09
2022-11-19T09:16:18.234Z,99647.50
2022-11-19T09:18:45.288Z,99654.06
2022-11-19T09:21:12.921Z,99654.91
2022-11-19T09:23:41.596Z,99664.31
2022-11-19T09:26:18.393Z,99663.88
2022-11-19T09:28:45.870Z,99669.03
2022-11-19T09:31:15.459Z,99669.44
2022-11-19T09:33:44.566Z,99668.22
2022-11-19T09:36:13.085Z,99668.03
2022-11-19T09:38:41.122Z,99660.06
2022-11-19T09:41:29.298Z,99651.59
2022-11-19T09:44:05.123Z,99660.66
2022-11-19T09:46:49.808Z,99658.44
2022-11-19T09:49:22.913Z,99666.03
2022-11-19T09:51:57.973Z,99661.31
2022-11-19T09:54:25.256Z,99654.31
2022-11-19T09:56:59.216Z,99656.75
2022-11-19T09:59:39.386Z,99654.31
2022-11-19T10:02:17.769Z,99649.72
2022-11-19T10:04:46.141Z,99666.81
2022-11-19T10:07:34.088Z,99656.72
2022-11-19T10:10:25.510Z,99651.41
2022-11-19T10:13:17.010Z,99650.19
2022-11-19T10:15:59.173Z,99634.56
2022-11-19T10:18:41.477Z,99644.47
2022-11-19T10:21:37.927Z,99634.38
2022-11-19T10:24:18.497Z,99625.50
2022-11-19T10:26:55.207Z,99623.47
2022-11-19T10:29:27.281Z,99621.22
2022-11-19T10:31:55.940Z,99622.44
2022-11-19T10:34:27.461Z,99612.75
2022-11-19T10:37:06.127Z,99616.28
2022-11-19T10:39:42.199Z,99611.34
2022-11-19T10:42:17.961Z,99608.03
2022-11-19T10:45:18.767Z,99596.47
2022-11-19T10:47:58.183Z,99591.34
2022-11-19T10:50:26.363Z,99590.47
2022-11-19T10:53:00.644Z,99585.78
2022-11-19T10:55:29.981Z,99592.78
2022-11-19T10:58:07.377Z,99601.22
2022-11-19T11:00:36.306Z,99606.97
2022-11-19T11:03:05.344Z,99598.16
2022-11-19T11:05:52.407Z,99592.19
2022-11-19T11:08:19.259Z,99591.56
2022-11-19T11:10:46.223Z,99589.53
2022-11-19T11:13:37.239Z,99583.13
2022-11-19T11:16:10.220Z,99581.88
2022-11-19T11:18:42.256Z,99583.75
2022-11-19T11:21:39.200Z,99591.34
2022-11-19T11:24:07.834Z,99584.78
2022-11-19T11:26:39.273Z,99593.22
2022-11-19T11:29:15.153Z,99596.50
2022-11-19T11:31:47.536Z,99598.97
2022-11-19T11:34:26.102Z,99601.44
2022-11-19T11:36:54.612Z,99594.84
2022-11-19T11:39:44.402Z,99582.94
2022-11-19T11:42:17.484Z,99588.47
2022-11-19T11:44:52.447Z,99594.25
2022-11-19T11:47:23.103Z,99593.00
2022-11-19T11:50:22.495Z,99583.09
2022-11-19T11:52:52.538Z,99590.94
2022-11-19T11:55:25.607Z,99592.41
2022-11-19T11:58:03.960Z,99602.50
2022-11-19T12:00:33.614Z,99603.50
2022-11-19T12:03:09.332Z,99597.53
2022-11-19T12:05:54.571Z,99601.44
2022-11-19T12:08:45.934Z,99591.56
2022-11-19T12:11:56.382Z,99589.09
2022-11-19T12:14:38.214Z,99590.31
2022-11-19T12:17:18.559Z,99597.72
2022-11-19T12:20:03.519Z,99592.16
2022-11-19T12:22:39.260Z,99588.25
2022-11-19T12:25:41.478Z,99597.50
2022-11-19T12:28:13.106Z,99583.50
2022-11-19T12:30:49.230Z,99580.00
2022-11-19T12:33:48.269Z,99581.03
2022-11-19T12:36:27.275Z,99571.97
2022-11-19T12:39:01.578Z,99558.19
2022-11-19T12:42:15.127Z,99571.78
2022-11-19T12:44:48.122Z,99567.47
2022-11-19T12:47:23.811Z,99574.06
2022-11-19T12:50:16.868Z,99567.47
2022-11-19T12:52:52.826Z,99570.34
2022-11-19T12:55:33.384Z,99569.94
2022-11-19T12:58:21.419Z,99564.81
2022-11-19T13:00:55.771Z,99568.31
2022-11-19T13:03:47.281Z,99571.97
2022-11-19T13:06:32.875Z,99580.59
2022-11-19T13:09:04.475Z,99572.13
2022-11-19T13:11:58.865Z,99588.97
2022-11-19T13:14:49.526Z,99589.53
2022-11-19T13:17:41.994Z,99583.34
2022-11-19T13:20:26.063Z,99589.31
2022-11-19T13:22:57.831Z,99587.66
2022-11-19T13:25:36.629Z,99588.25
2022-11-19T13:28:13.069Z,99573.22
2022-11-19T13:30:45.575Z,99580.81
2022-11-19T13:33:54.211Z,99581.44
2022-11-19T13:36:37.679Z,99579.66
2022-11-19T13:39:17.928Z,99588.59
2022-11-19T13:42:14.115Z,99579.69
2022-11-19T13:44:44.082Z,99581.13
2022-11-19T13:47:29.144Z,99584.97
2022-11-19T13:49:58.820Z,99591.91
2022-11-19T13:52:31.942Z,99598.47
2022-11-19T13:55:01.217Z,99580.56
2022-11-19T13:57:32.603Z,99587.53
2022-11-19T14:00:05.782Z,99588.81
2022-11-19T14:02:47.402Z,99580.41
2022-11-19T14:05:36.128Z,99574.88
2022-11-19T14:08:18.366Z,99581.03
2022-11-19T14:11:00.002Z,99598.31
2022-11-19T14:14:04.205Z,99600.13
2022-11-19T14:17:15.830Z,99599.81
2022-11-19T14:20:09.173Z,99593.63
2022-11-19T14:22:57.644Z,99598.13
2022-11-19T14:26:06.000Z,99592.97
2022-11-19T14:28:44.731Z,99590.22
2022-11-19T14:31:12.376Z,99597.41
2022-11-19T14:33:47.898Z,99592.50
2022-11-19T14:36:22.332Z,99595.19
2022-11-19T14:38:59.477Z,99590.22
2022-11-19T14:41:35.823Z,99581.16
2022-11-19T14:44:11.128Z,99586.66
2022-11-19T14:46:48.691Z,99579.75
2022-11-19T14:49:29.586Z,99587.34
2022-11-19T14:51:57.811Z,99583.91
2022-11-19T14:54:31.933Z,99584.50
2022-11-19T14:57:16.431Z,99582.44
2022-11-19T14:59:50.367Z,99583.91
2022-11-19T15:02:26.718Z,99580.63
2022-11-19T15:04:57.957Z,99581.44
2022-11-19T15:07:38.300Z,99579.94
2022-11-19T15:10:14.268Z,99569.91
2022-11-19T15:12:43.862Z,99576.84
2022-11-19T15:15:19.437Z,99583.00
2022-11-19T15:17:55.450Z,99587.69
2022-11-19T15:21:12.649Z,99569.44
2022-11-19T15:23:45.609Z,99585.03
2022-11-19T15:26:21.568Z,99583.59
2022-11-19T15:29:15.729Z,99583.41
2022-11-19T15:32:07.176Z,99586.88
2022-11-19T15:35:10.969Z,99583.59
2022-11-19T15:37:53.389Z,99589.72
2022-11-19T15:40:24.941Z,99589.50
2022-11-19T15:43:34.698Z,99569.44
2022-11-19T15:46:10.071Z,99560.38
2022-11-19T15:48:45.886Z,99562.81
2022-11-19T15:51:16.083Z,99558.22
2022-11-19T15:54:03.951Z,99551.69
2022-11-19T15:56:39.512Z,99566.44
2022-11-19T15:59:08.681Z,99562.28
2022-11-19T16:01:36.308Z,99558.00
2022-11-19T16:04:08.804Z,99554.97
2022-11-19T16:06:37.851Z,99554.78
2022-11-19T16:09:08.831Z,99554.59
2022-11-19T16:11:56.659Z,99557.47
2022-11-19T16:14:49.358Z,99561.81
2022-11-19T16:17:43.469Z,99566.88
2022-11-19T16:20:11.121Z,99556.13
2022-11-19T16:22:43.858Z,99550.69
2022-11-19T16:25:27.381Z,99555.38
2022-11-19T16:27:57.541Z,99570.28
2022-11-19T16:30:30.243Z,99557.22
2022-11-19T16:32:59.944Z,99562.34
2022-11-19T16:35:32.715Z,99568.75
2022-11-19T16:38:01.523Z,99566.75
2022-11-19T16:40:49.672Z,99573.88
2022-11-19T16:43:17.221Z,99564.13
2022-11-19T16:45:46.091Z,99570.06
2022-11-19T16:48:51.355Z,99584.59
2022-11-19T16:51:37.661Z,99582.91
2022-11-19T16:54:10.310Z,99588.09
2022-11-19T16:56:45.999Z,99575.75
2022-11-19T16:59:20.429Z,99578.78
2022-11-19T17:01:56.473Z,99581.44
2022-11-19T17:04:27.467Z,99592.94
2022-11-19T17:06:55.059Z,99587.41
2022-11-19T17:09:38.128Z,99559.28
2022-11-19T17:12:23.088Z,99563.16
2022-11-19T17:14:58.689Z,99569.28
2022-11-19T17:17:41.561Z,99574.97
2022-11-19T17:20:32.287Z,99576.00
2022-11-19T17:23:00.625Z,99593.22
2022-11-19T17:25:27.972Z,99591.34
2022-11-19T17:27:57.564Z,99592.78
2022-11-19T17:30:32.296Z,99589.66
2022-11-19T17:33:05.106Z,99589.88
2022-11-19T17:35:40.761Z,99598.22
2022-11-19T17:38:12.047Z,99607.41
2022-11-19T17:40:50.545Z,99600.13
2022-11-19T17:43:56.587Z,99600.56
2022-11-19T17:46:25.992Z,99603.38
2022-11-19T17:48:53.450Z,99599.31
2022-11-19T17:51:23.012Z,99599.88
2022-11-19T17:53:54.463Z,99609.81
2022-11-19T17:56:22.345Z,99601.84
2022-11-19T17:58:49.227Z,99597.28
2022-11-19T18:01:17.103Z,99601.97
2022-11-19T18:03:44.619Z,99600.75
2022-11-19T18:06:12.868Z,99607.38
2022-11-19T18:08:42.019Z,99607.38
2022-11-19T18:11:16.067Z,99605.13
2022-11-19T18:13:44.271Z,99609.19
2022-11-19T18:16:19.724Z,99616.63
2022-11-19T18:18:47.033Z,99621.50
2022-11-19T18:21:15.964Z,99609.00
2022-11-19T18:23:45.093Z,99609.00
2022-11-19T18:26:13.478Z,99597.06
2022-11-19T18:28:46.245Z,99605.66
2022-11-19T18:31:17.482Z,99593.97
2022-11-19T18:33:45.538Z,99586.16
2022-11-19T18:36:12.431Z,99592.94
2022-11-19T18:38:39.266Z,99591.56
2022-11-19T18:41:06.400Z,99601.19
2022-11-19T18:43:51.587Z,99604.50
2022-11-19T18:46:18.417Z,99593.84
2022-11-19T18:48:45.349Z,99604.88
2022-11-19T18:51:12.553Z,99597.53
2022-11-19T18:53:39.914Z,99603.84
2022-11-19T18:56:07.847Z,99601.84
2022-11-19T18:58:35.214Z,99594.47
2022-11-19T19:01:08.162Z,99598.53
2022-11-19T19:03:35.395Z,99595.88
2022-11-19T19:06:03.335Z,99582.38
2022-11-19T19:08:31.414Z,99576.13
2022-11-19T19:11:18.885Z,99585.53
2022-11-19T19:13:46.340Z,99588.31
2022-11-19T19:16:13.945Z,99585.22
2022-11-19T19:18:40.857Z,99585.13
2022-11-19T19:21:19.254Z,99600.47
2022-11-19T19:23:46.888Z,99603.72
2022-11-19T19:26:16.303Z,99599.22
2022-11-19T19:28:47.428Z,99611.13
2022-11-19T19:31:17.810Z,99617.28
2022-11-19T19:33:47.867Z,99617.56
2022-11-19T19:36:16.101Z,99616.91
2022-11-19T19:38:43.690Z,99621.84
2022-11-19T19:41:14.936Z,99614.25
2022-11-19T19:43:41.844Z,99619.28
2022-11-19T19:46:13.602Z,99612.94
2022-11-19T19:48:40.626Z,99607.78
2022-11-19T19:51:07.562Z,99617.44
2022-11-19T19:53:35.297Z,99611.94
2022-11-19T19:56:06.931Z,99619.97
2022-11-19T19:58:33.965Z,99621.19
2022-11-19T20:01:09.446Z,99636.16
2022-11-19T20:03:36.925Z,99651.56
2022-11-19T20:06:06.166Z,99664.53
2022-11-19T20:08:35.187Z,99673.13
2022-11-19T20:11:07.764Z,99682.97
2022-11-19T20:13:36.895Z,99698.59
2022-11-19T20:16:09.950Z,99713.09
2022-11-19T20:18:41.070Z,99716.78
2022-11-19T20:21:10.843Z,99727.47
2022-11-19T20:23:38.742Z,99723.03
2022-11-19T20:26:11.484Z,99718.09
2022-11-19T20:28:38.956Z,99707.97
2022-11-19T20:31:11.174Z,99707.97
2022-11-19T20:33:39.195Z,99704.25
2022-11-19T20:36:07.475Z,99696.81
2022-11-19T20:38:38.983Z,99679.78
2022-11-19T20:41:07.917Z,99670.53
2022-11-19T20:43:53.458Z,99660.16
2022-11-19T20:46:22.809Z,99658.13
2022-11-19T20:48:50.063Z,99656.88
2022-11-19T20:51:19.977Z,99645.00
2022-11-19T20:53:47.066Z,99635.72
2022-11-19T20:56:14.685Z,99640.41
2022-11-19T20:58:41.613Z,99635.47
2022-11-19T21:01:10.552Z,99624.16
2022-11-19T21:03:38.040Z,99633.28
2022-11-19T21:06:07.332Z,99648.13
2022-11-19T21:08:35.802Z,99644.22
2022-11-19T21:11:13.712Z,99638.69
2022-11-19T21:13:41.166Z,99636.13
2022-11-19T21:16:11.784Z,99632.38
2022-11-19T21:18:39.730Z,99634.50
2022-11-19T21:21:07.374Z,99635.88
2022-11-19T21:23:34.793Z,99643.03
2022-11-19T21:26:13.476Z,99637.88
2022-11-19T21:28:40.376Z,99631.31
2022-11-19T21:31:07.153Z,99632.50
2022-11-19T21:33:34.106Z,99641.09
2022-11-19T21:36:03.449Z,99639.91
2022-11-19T21:38:30.622Z,99631.38
2022-11-19T21:40:57.891Z,99627.34
2022-11-19T21:43:26.061Z,99617.69
2022-11-19T21:45:54.460Z,99620.81
2022-11-19T21:48:25.649Z,99613.00
2022-11-19T21:50:53.489Z,99612.63
2022-11-19T21:53:20.425Z,99610.81
2022-11-19T21:55:47.607Z,99613.00
2022-11-19T21:58:15.550Z,99620.44
2022-11-19T22:00:42.876Z,99617.59
2022-11-19T22:03:09.818Z,99619.75
2022-11-19T22:05:36.716Z,99614.00
2022-11-19T22:08:03.686Z,99610.81
2022-11-19T22:10:30.649Z,99610.97
2022-11-19T22:12:58.906Z,99616.56
2022-11-19T22:15:27.165Z,99598.38
2022-11-19T22:17:54.400Z,99614.81
2022-11-19T22:20:21.278Z,99611.88
2022-11-19T22:22:48.091Z,99599.59
2022-11-19T22:25:15.089Z,99601.53
2022-11-19T22:27:42.159Z,99603.63
2022-11-19T22:30:10.378Z,99612.25
2022-11-19T22:32:37.422Z,99616.56
2022-11-19T22:35:05.069Z,99621.63
2022-11-19T22:37:32.244Z,99616.03
2022-11-19T22:39:59.126Z,99605.56
2022-11-19T22:42:26.018Z,99616.59
2022-11-19T22:44:53.069Z,99615.94
2022-11-19T22:47:20.016Z,99614.56
2022-11-19T22:49:46.901Z,99606.75
2022-11-19T22:52:15.737Z,99600.19
2022-11-19T22:54:42.614Z,99592.19
2022-11-19T22:57:10.165Z,99581.72
2022-11-19T22:59:37.040Z,99589.53
2022-11-19T23:02:03.966Z,99593.00
2022-11-19T23:04:30.801Z,99595.50
2022-11-19T23:06:57.767Z,99579.25
2022-11-19T23:09:24.697Z,99578.63
2022-11-19T23:12:10.078Z,99573.72
2022-11-19T23:14:37.091Z,99578.41
2022-11-19T23:17:03.933Z,99580.91
2022-11-19T23:19:30.831Z,99587.13
2022-11-19T23:21:57.663Z,99586.91
2022-11-19T23:24:28.764Z,99585.84
2022-11-19T23:26:55.633Z,99588.13
2022-11-19T23:29:22.944Z,99594.47
2022-11-19T23:31:50.215Z,99590.16
2022-11-19T23:34:17.115Z,99588.50
2022-11-19T23:36:44.393Z,99590.53
2022-11-19T23:39:16.450Z,99586.03
2022-11-19T23:41:44.302Z,99587.13
2022-11-19T23:44:11.578Z,99586.22
2022-11-19T23:46:38.829Z,99579.59
2022-11-19T23:49:06.147Z,99594.75
2022-11-19T23:51:35.830Z,99602.94
2022-11-19T23:54:03.537Z,99609.38
2022-11-19T23:56:32.780Z,99614.13
2022-11-19T23:59:03.824Z,99613.53
